Time;durP1;ratioP1;P1;durP2;ratioP2;P2;SDS_P1;SDS_P2;PMS_P1;PMS_P2;Temp;Humidity;BMP_temperature;BMP_pressure;BME280_temperature;BME280_humidity;BME280_pressure;Samples;Min_cycle;Max_cycle;Signal;HPM_P1;HPM_P2
2023/07/18 00:00:56;;;;;;;21.67;20.48;;;;;;;;;;5016823;28;20081;-63
2023/07/18 00:03:21;;;;;;;20.50;19.17;;;;;;;;;;5017746;28;20180;-63
2023/07/18 00:05:47;;;;;;;22.58;21.27;;;;;;;;;;5017936;28;20037;-63
2023/07/18 00:08:13;;;;;;;25.10;23.80;;;;;;;;;;5016997;28;20491;-63
2023/07/18 00:10:38;;;;;;;26.67;25.25;;;;;;;;;;5019250;28;20034;-63
2023/07/18 00:13:04;;;;;;;25.95;24.55;;;;;;;;;;5017076;28;20862;-63
2023/07/18 00:15:29;;;;;;;29.60;28.00;;;;;;;;;;5017797;28;20571;-63
2023/07/18 00:17:55;;;;;;;33.40;31.65;;;;;;;;;;5015550;28;20108;-64
2023/07/18 00:20:22;;;;;;;34.20;32.40;;;;;;;;;;5017327;28;20033;-63
2023/07/18 00:22:49;;;;;;;35.45;33.65;;;;;;;;;;5021220;28;20037;-63
2023/07/18 00:25:18;;;;;;;37.25;35.33;;;;;;;;;;5019721;28;20171;-63
2023/07/18 00:27:45;;;;;;;34.85;33.05;;;;;;;;;;5015889;28;20029;-63
2023/07/18 00:30:14;;;;;;;37.83;35.83;;;;;;;;;;5014592;28;20037;-63
2023/07/18 00:32:42;;;;;;;35.17;33.28;;;;;;;;;;5015921;28;20030;-63
2023/07/18 00:35:08;;;;;;;32.13;30.42;;;;;;;;;;5022447;28;20104;-63
2023/07/18 00:37:33;;;;;;;33.72;31.63;;;;;;;;;;5013845;28;20361;-63
2023/07/18 00:39:59;;;;;;;32.47;30.80;;;;;;;;;;5017709;28;20038;-63
2023/07/18 00:42:24;;;;;;;32.45;30.65;;;;;;;;;;5017970;28;20037;-63
2023/07/18 00:44:50;;;;;;;27.95;26.48;;;;;;;;;;5017740;28;20033;-63
2023/07/18 00:47:22;;;;;;;26.75;25.33;;;;;;;;;;5017927;28;20320;-63
2023/07/18 00:49:47;;;;;;;27.17;25.73;;;;;;;;;;5018124;28;20033;-63
2023/07/18 00:52:14;;;;;;;25.25;23.90;;;;;;;;;;5018695;28;20033;-64
2023/07/18 00:54:40;;;;;;;25.58;24.20;;;;;;;;;;5016378;28;20044;-64
2023/07/18 00:57:07;;;;;;;23.38;22.13;;;;;;;;;;5017040;28;20115;-64
2023/07/18 00:59:32;;;;;;;18.48;17.45;;;;;;;;;;5023258;28;20026;-64
2023/07/18 01:01:58;;;;;;;20.85;19.70;;;;;;;;;;5022370;28;20091;-64
2023/07/18 01:04:24;;;;;;;21.25;20.10;;;;;;;;;;5018643;28;20048;-64
2023/07/18 01:06:49;;;;;;;20.67;19.50;;;;;;;;;;5012881;28;20141;-64
2023/07/18 01:09:15;;;;;;;19.55;18.45;;;;;;;;;;5020478;28;20033;-64
2023/07/18 01:11:41;;;;;;;18.50;17.50;;;;;;;;;;5017691;28;20141;-64
2023/07/18 01:14:06;;;;;;;21.35;20.15;;;;;;;;;;5012402;28;20038;-65
2023/07/18 01:16:32;;;;;;;19.77;18.67;;;;;;;;;;5018049;28;20044;-65
2023/07/18 01:18:57;;;;;;;20.40;19.30;;;;;;;;;;5014232;28;20022;-65
2023/07/18 01:21:24;;;;;;;19.63;18.52;;;;;;;;;;5017482;28;20162;-65
2023/07/18 01:23:49;;;;;;;20.30;19.00;;;;;;;;;;5019265;28;20070;-65
2023/07/18 01:26:15;;;;;;;23.63;22.33;;;;;;;;;;5015388;28;20033;-65
2023/07/18 01:28:40;;;;;;;24.98;23.60;;;;;;;;;;5017767;28;21416;-65
2023/07/18 01:31:06;;;;;;;30.27;28.58;;;;;;;;;;5016885;28;20057;-64
2023/07/18 01:33:32;;;;;;;28.63;27.13;;;;;;;;;;5018507;28;20029;-64
2023/07/18 01:35:57;;;;;;;30.10;28.50;;;;;;;;;;5016195;28;20044;-64
2023/07/18 01:38:29;;;;;;;31.50;29.85;;;;;;;;;;5019395;28;20026;-65
2023/07/18 01:40:55;;;;;;;35.65;33.75;;;;;;;;;;5015353;28;20460;-64
2023/07/18 01:43:21;;;;;;;38.72;36.50;;;;;;;;;;5017021;28;20037;-64
2023/07/18 01:45:46;;;;;;;44.33;41.97;;;;;;;;;;5018113;28;20045;-64
2023/07/18 01:48:11;;;;;;;49.95;47.38;;;;;;;;;;5016959;28;20049;-64
2023/07/18 01:50:37;;;;;;;57.90;54.85;;;;;;;;;;5019804;28;20105;-65
2023/07/18 01:53:02;;;;;;;62.75;59.42;;;;;;;;;;5014751;28;20071;-65
2023/07/18 01:55:27;;;;;;;66.65;63.22;;;;;;;;;;5018342;28;20116;-64
2023/07/18 01:57:53;;;;;;;71.03;67.40;;;;;;;;;;5019206;28;20026;-65
2023/07/18 02:00:19;;;;;;;81.00;76.90;;;;;;;;;;5016406;28;20065;-65
2023/07/18 02:02:48;;;;;;;84.95;80.60;;;;;;;;;;5018873;28;20029;-65
2023/07/18 02:05:18;;;;;;;83.43;79.20;;;;;;;;;;5015501;28;20033;-64
2023/07/18 02:07:45;;;;;;;80.80;76.72;;;;;;;;;;5016364;28;20050;-64
2023/07/18 02:10:11;;;;;;;88.05;83.60;;;;;;;;;;5015018;28;20052;-64
2023/07/18 02:12:37;;;;;;;94.97;90.10;;;;;;;;;;5016056;28;20199;-64
2023/07/18 02:15:05;;;;;;;110.43;104.88;;;;;;;;;;5016539;28;20083;-64
2023/07/18 02:17:31;;;;;;;114.07;108.20;;;;;;;;;;5017113;28;20091;-64
2023/07/18 02:19:56;;;;;;;129.52;122.90;;;;;;;;;;5016182;28;20129;-64
2023/07/18 02:22:22;;;;;;;151.60;143.73;;;;;;;;;;5016905;28;20530;-64
2023/07/18 02:24:48;;;;;;;159.75;151.68;;;;;;;;;;5016043;28;20577;-64
2023/07/18 02:27:13;;;;;;;170.68;162.05;;;;;;;;;;5014565;28;20033;-64
2023/07/18 02:29:38;;;;;;;189.90;180.45;;;;;;;;;;5013696;28;20494;-64
2023/07/18 02:32:04;;;;;;;193.70;184.13;;;;;;;;;;5018035;28;20041;-65
2023/07/18 02:34:29;;;;;;;207.27;196.98;;;;;;;;;;5017357;28;20245;-64
2023/07/18 02:36:55;;;;;;;211.90;201.40;;;;;;;;;;5016848;28;20057;-64
2023/07/18 02:39:20;;;;;;;213.20;202.63;;;;;;;;;;5015957;28;20034;-64
2023/07/18 02:41:46;;;;;;;219.38;208.57;;;;;;;;;;5020623;28;20048;-64
2023/07/18 02:44:11;;;;;;;221.65;210.73;;;;;;;;;;5019346;28;20095;-64
2023/07/18 02:46:37;;;;;;;224.60;213.50;;;;;;;;;;5020282;28;20048;-64
2023/07/18 02:49:03;;;;;;;227.27;216.05;;;;;;;;;;5020300;28;20036;-64
2023/07/18 02:51:29;;;;;;;225.07;213.88;;;;;;;;;;5019665;28;20029;-64
2023/07/18 02:53:54;;;;;;;217.10;206.38;;;;;;;;;;5020480;28;20087;-64
2023/07/18 02:56:20;;;;;;;221.07;210.15;;;;;;;;;;5017901;28;20062;-64
2023/07/18 02:58:46;;;;;;;214.00;203.50;;;;;;;;;;5021708;28;20030;-64
2023/07/18 03:01:11;;;;;;;202.93;192.85;;;;;;;;;;5019239;28;20029;-64
2023/07/18 03:03:40;;;;;;;205.85;195.55;;;;;;;;;;5020400;28;20026;-64
2023/07/18 03:06:07;;;;;;;209.15;198.82;;;;;;;;;;5018640;28;20534;-64
2023/07/18 03:08:33;;;;;;;197.63;187.95;;;;;;;;;;5019203;28;20063;-64
2023/07/18 03:11:02;;;;;;;180.50;171.57;;;;;;;;;;5019927;28;20087;-64
2023/07/18 03:13:27;;;;;;;178.27;169.45;;;;;;;;;;5014565;28;20095;-64
2023/07/18 03:15:56;;;;;;;178.63;169.73;;;;;;;;;;5020130;28;20471;-64
2023/07/18 03:18:22;;;;;;;154.68;146.85;;;;;;;;;;5016891;28;20034;-64
2023/07/18 03:20:47;;;;;;;152.73;145.00;;;;;;;;;;5017586;28;20529;-64
2023/07/18 03:23:13;;;;;;;158.20;150.20;;;;;;;;;;5020904;28;20060;-64
2023/07/18 03:25:39;;;;;;;153.07;145.43;;;;;;;;;;5020101;28;20033;-64
2023/07/18 03:28:04;;;;;;;151.85;144.18;;;;;;;;;;5019308;28;20411;-64
2023/07/18 03:30:30;;;;;;;151.23;143.73;;;;;;;;;;5020491;28;20037;-64
2023/07/18 03:32:56;;;;;;;150.63;142.98;;;;;;;;;;5022205;28;20112;-64
2023/07/18 03:35:21;;;;;;;143.32;136.13;;;;;;;;;;5018167;28;20053;-64
2023/07/18 03:37:47;;;;;;;149.02;141.50;;;;;;;;;;5020742;28;20025;-64
2023/07/18 03:40:15;;;;;;;143.80;136.63;;;;;;;;;;5020017;28;20104;-64
2023/07/18 03:42:42;;;;;;;144.80;137.52;;;;;;;;;;5019119;28;20040;-64
2023/07/18 03:45:10;;;;;;;137.85;130.88;;;;;;;;;;5018559;28;20037;-64
2023/07/18 03:47:36;;;;;;;137.15;130.30;;;;;;;;;;5019850;28;20042;-64
2023/07/18 03:50:02;;;;;;;138.68;131.77;;;;;;;;;;5019560;28;20033;-64
2023/07/18 03:52:28;;;;;;;128.45;121.95;;;;;;;;;;5019355;28;20077;-64
2023/07/18 03:54:53;;;;;;;125.22;118.93;;;;;;;;;;5019396;28;20037;-64
2023/07/18 03:57:19;;;;;;;126.00;119.70;;;;;;;;;;5017517;28;20032;-64
2023/07/18 03:59:44;;;;;;;124.43;118.22;;;;;;;;;;5019281;28;20037;-65
2023/07/18 04:02:09;;;;;;;114.60;108.88;;;;;;;;;;5022003;28;20029;-65
2023/07/18 04:04:35;;;;;;;105.45;100.07;;;;;;;;;;5018282;28;20025;-65
2023/07/18 04:07:00;;;;;;;103.07;97.93;;;;;;;;;;5018845;28;20041;-65
2023/07/18 04:09:25;;;;;;;103.10;97.75;;;;;;;;;;5015683;28;20037;-73
2023/07/18 04:11:51;;;;;;;96.90;92.00;;;;;;;;;;5019174;28;20331;-65
2023/07/18 04:14:16;;;;;;;88.55;84.03;;;;;;;;;;5014335;28;20240;-65
2023/07/18 04:16:41;;;;;;;81.88;77.68;;;;;;;;;;5020232;28;20025;-65
2023/07/18 04:19:08;;;;;;;69.78;66.13;;;;;;;;;;5016416;28;20034;-65
2023/07/18 04:21:34;;;;;;;54.13;51.28;;;;;;;;;;5015924;28;20030;-73
2023/07/18 04:23:59;;;;;;;44.45;41.70;;;;;;;;;;5020986;28;20029;-73
2023/07/18 04:26:25;;;;;;;36.63;34.67;;;;;;;;;;5016585;28;20044;-73
2023/07/18 04:28:51;;;;;;;34.45;32.67;;;;;;;;;;5018452;28;20029;-73
2023/07/18 04:31:16;;;;;;;39.05;36.90;;;;;;;;;;5017725;28;20041;-73
2023/07/18 04:33:41;;;;;;;36.95;34.97;;;;;;;;;;5021648;28;20140;-73
2023/07/18 04:36:07;;;;;;;42.13;39.92;;;;;;;;;;5019106;28;20038;-65
2023/07/18 04:38:37;;;;;;;43.08;40.75;;;;;;;;;;5017359;28;20030;-74
2023/07/18 04:41:03;;;;;;;43.53;41.22;;;;;;;;;;5017752;28;20049;-65
2023/07/18 04:43:28;;;;;;;47.60;45.10;;;;;;;;;;5012633;28;20033;-65
2023/07/18 04:45:54;;;;;;;50.35;47.22;;;;;;;;;;5019916;28;20155;-65
2023/07/18 04:48:20;;;;;;;51.72;49.00;;;;;;;;;;5017444;28;20064;-65
2023/07/18 04:50:47;;;;;;;56.38;53.35;;;;;;;;;;5015713;28;20030;-65
2023/07/18 04:53:12;;;;;;;59.65;56.33;;;;;;;;;;5016269;28;20391;-65
2023/07/18 04:55:38;;;;;;;64.38;60.97;;;;;;;;;;5014681;28;20033;-65
2023/07/18 04:58:06;;;;;;;68.38;64.75;;;;;;;;;;5013923;28;20045;-73
2023/07/18 05:00:33;;;;;;;79.28;74.90;;;;;;;;;;5015189;28;20123;-73
2023/07/18 05:02:59;;;;;;;82.78;78.30;;;;;;;;;;5016076;28;20276;-67
2023/07/18 05:05:29;;;;;;;104.82;99.20;;;;;;;;;;5018501;28;20064;-64
2023/07/18 05:07:55;;;;;;;108.05;102.05;;;;;;;;;;5016770;28;20034;-64
2023/07/18 05:10:22;;;;;;;121.15;114.55;;;;;;;;;;5014526;28;20037;-65
2023/07/18 05:12:50;;;;;;;117.03;110.72;;;;;;;;;;5019981;28;20059;-65
2023/07/18 05:15:15;;;;;;;109.53;103.85;;;;;;;;;;5018174;28;20034;-65
2023/07/18 05:17:41;;;;;;;95.88;91.03;;;;;;;;;;5017938;28;20397;-65
2023/07/18 05:20:10;;;;;;;85.75;81.35;;;;;;;;;;5018805;28;20043;-65
2023/07/18 05:22:37;;;;;;;72.55;68.85;;;;;;;;;;5017207;28;20033;-65
2023/07/18 05:25:04;;;;;;;60.15;57.00;;;;;;;;;;5017406;28;20037;-65
2023/07/18 05:27:30;;;;;;;45.92;43.53;;;;;;;;;;5017126;28;20026;-74
2023/07/18 05:29:55;;;;;;;31.45;29.65;;;;;;;;;;5017044;28;20025;-66
2023/07/18 05:32:21;;;;;;;26.80;25.30;;;;;;;;;;5014411;28;20052;-66
2023/07/18 05:34:47;;;;;;;24.60;23.25;;;;;;;;;;5014174;28;20026;-66
2023/07/18 05:37:12;;;;;;;23.95;22.48;;;;;;;;;;5013579;28;20294;-65
2023/07/18 05:39:38;;;;;;;15.13;14.20;;;;;;;;;;5018792;28;20526;-66
2023/07/18 05:42:04;;;;;;;17.50;16.50;;;;;;;;;;5016832;28;20041;-66
2023/07/18 05:44:30;;;;;;;16.05;15.10;;;;;;;;;;5021936;28;20512;-66
2023/07/18 05:46:56;;;;;;;19.27;17.50;;;;;;;;;;5013297;28;20045;-66
2023/07/18 05:49:21;;;;;;;17.55;16.23;;;;;;;;;;5015321;28;20045;-66
2023/07/18 05:51:46;;;;;;;17.63;16.52;;;;;;;;;;5017123;28;20054;-66
2023/07/18 05:54:11;;;;;;;18.23;17.23;;;;;;;;;;5016751;28;20107;-65
2023/07/18 05:56:37;;;;;;;22.48;21.20;;;;;;;;;;5017819;28;20061;-73
2023/07/18 05:59:06;;;;;;;23.38;22.13;;;;;;;;;;5015344;28;20059;-73
2023/07/18 06:01:32;;;;;;;16.65;15.70;;;;;;;;;;5016329;28;20059;-73
2023/07/18 06:03:58;;;;;;;18.27;17.27;;;;;;;;;;5017498;28;20426;-74
2023/07/18 06:06:24;;;;;;;15.57;14.68;;;;;;;;;;5013551;28;20056;-73
2023/07/18 06:08:49;;;;;;;14.68;13.80;;;;;;;;;;5017956;28;20030;-74
2023/07/18 06:11:14;;;;;;;36.42;34.55;;;;;;;;;;5015519;28;20526;-72
2023/07/18 06:13:41;;;;;;;21.33;20.02;;;;;;;;;;5014010;28;20069;-74
2023/07/18 06:16:06;;;;;;;14.15;13.35;;;;;;;;;;5002529;28;20472;-74
2023/07/18 06:18:32;;;;;;;18.85;17.83;;;;;;;;;;5018010;28;20096;-68
2023/07/18 06:20:57;;;;;;;25.20;23.80;;;;;;;;;;5015752;28;20029;-68
2023/07/18 06:23:22;;;;;;;28.08;26.58;;;;;;;;;;5019225;28;20029;-68
2023/07/18 06:25:48;;;;;;;20.30;19.20;;;;;;;;;;5015275;28;20538;-75
2023/07/18 06:28:13;;;;;;;28.25;26.60;;;;;;;;;;5016519;28;20079;-74
2023/07/18 06:30:39;;;;;;;13.43;12.63;;;;;;;;;;5017995;28;20060;-70
2023/07/18 06:33:04;;;;;;;15.55;14.65;;;;;;;;;;5021624;28;20047;-68
2023/07/18 06:35:32;;;;;;;15.00;14.10;;;;;;;;;;5023171;28;20034;-69
2023/07/18 06:37:57;;;;;;;18.15;17.13;;;;;;;;;;5014944;28;20154;-75
2023/07/18 06:40:23;;;;;;;15.80;14.85;;;;;;;;;;5017722;28;20041;-75
2023/07/18 06:42:48;;;;;;;22.63;21.40;;;;;;;;;;5016919;28;20045;-75
2023/07/18 06:45:14;;;;;;;21.25;20.05;;;;;;;;;;5018105;28;20499;-68
2023/07/18 06:47:40;;;;;;;30.33;28.63;;;;;;;;;;5016317;28;20092;-68
2023/07/18 06:50:06;;;;;;;25.65;24.27;;;;;;;;;;5017218;28;20037;-74
2023/07/18 06:52:31;;;;;;;35.00;32.70;;;;;;;;;;5018453;28;20037;-68
2023/07/18 06:54:57;;;;;;;45.45;43.10;;;;;;;;;;5015474;28;20061;-67
2023/07/18 06:57:22;;;;;;;50.08;45.47;;;;;;;;;;5019382;28;20048;-74
2023/07/18 06:59:47;;;;;;;64.03;60.72;;;;;;;;;;5012331;28;20137;-73
2023/07/18 07:02:13;;;;;;;90.03;85.60;;;;;;;;;;5017200;28;20076;-68
2023/07/18 07:04:39;;;;;;;91.10;86.60;;;;;;;;;;5013291;28;20037;-67
2023/07/18 07:07:07;;;;;;;91.53;87.03;;;;;;;;;;5016360;28;20069;-73
2023/07/18 07:09:33;;;;;;;97.75;92.95;;;;;;;;;;5016061;28;20041;-67
2023/07/18 07:12:00;;;;;;;94.38;89.75;;;;;;;;;;5016621;28;20030;-73
2023/07/18 07:14:26;;;;;;;95.13;90.45;;;;;;;;;;5015073;28;20033;-68
2023/07/18 07:16:51;;;;;;;96.85;92.07;;;;;;;;;;5017453;28;20095;-68
2023/07/18 07:19:17;;;;;;;106.65;101.13;;;;;;;;;;5015763;28;20500;-73
2023/07/18 07:21:42;;;;;;;97.03;92.20;;;;;;;;;;5013498;28;20511;-68
2023/07/18 07:24:08;;;;;;;97.00;92.22;;;;;;;;;;5015745;28;20099;-68
2023/07/18 07:26:34;;;;;;;95.10;90.32;;;;;;;;;;5016795;28;20029;-72
2023/07/18 07:29:00;;;;;;;106.00;100.75;;;;;;;;;;5011778;28;20649;-71
2023/07/18 07:31:25;;;;;;;99.90;95.00;;;;;;;;;;5015596;28;20151;-72
2023/07/18 07:33:51;;;;;;;119.07;113.22;;;;;;;;;;5016777;28;20344;-72
2023/07/18 07:36:16;;;;;;;115.38;109.70;;;;;;;;;;5019570;28;20078;-72
2023/07/18 07:38:42;;;;;;;118.85;113.03;;;;;;;;;;5017263;28;20021;-72
2023/07/18 07:41:07;;;;;;;109.60;104.15;;;;;;;;;;5021400;28;20052;-67
2023/07/18 07:43:33;;;;;;;121.22;115.28;;;;;;;;;;5001751;28;20040;-68
2023/07/18 07:45:59;;;;;;;122.47;116.43;;;;;;;;;;5020108;28;20042;-73
2023/07/18 07:48:25;;;;;;;88.63;84.25;;;;;;;;;;5020403;28;20538;-68
2023/07/18 07:50:50;;;;;;;55.65;52.85;;;;;;;;;;5018208;28;20538;-73
2023/07/18 07:53:16;;;;;;;63.55;60.35;;;;;;;;;;5020753;28;20033;-73
2023/07/18 07:55:41;;;;;;;54.42;51.67;;;;;;;;;;5016453;28;20033;-73
2023/07/18 07:58:07;;;;;;;97.10;92.30;;;;;;;;;;5020648;28;20030;-74
2023/07/18 08:00:33;;;;;;;41.33;39.17;;;;;;;;;;5017740;28;20026;-73
2023/07/18 08:02:59;;;;;;;25.55;24.17;;;;;;;;;;5018602;28;20030;-68
2023/07/18 08:05:24;;;;;;;55.78;52.97;;;;;;;;;;5020597;28;20045;-74
2023/07/18 08:07:50;;;;;;;94.55;89.90;;;;;;;;;;5016183;28;20444;-69
2023/07/18 08:10:17;;;;;;;26.50;25.10;;;;;;;;;;5013347;28;20045;-69
2023/07/18 08:12:42;;;;;;;27.20;25.73;;;;;;;;;;5016502;28;20041;-69
2023/07/18 08:15:11;;;;;;;25.55;24.15;;;;;;;;;;5018156;28;20049;-68
2023/07/18 08:17:40;;;;;;;26.55;25.05;;;;;;;;;;5017115;28;20116;-69
2023/07/18 08:20:08;;;;;;;59.95;56.97;;;;;;;;;;5019125;28;20403;-69
2023/07/18 08:22:34;;;;;;;36.67;34.78;;;;;;;;;;5015597;28;20455;-69
2023/07/18 08:25:00;;;;;;;38.45;36.42;;;;;;;;;;5015804;28;20116;-69
2023/07/18 08:27:25;;;;;;;32.72;31.00;;;;;;;;;;5015450;28;20121;-70
2023/07/18 08:29:51;;;;;;;34.78;32.92;;;;;;;;;;5019166;28;20163;-69
2023/07/18 08:32:16;;;;;;;21.58;20.38;;;;;;;;;;5016793;28;20073;-71
2023/07/18 08:34:42;;;;;;;23.83;22.52;;;;;;;;;;5015790;28;20053;-74
2023/07/18 08:37:09;;;;;;;100.95;95.90;;;;;;;;;;5015717;28;20041;-74
2023/07/18 08:39:36;;;;;;;70.07;66.60;;;;;;;;;;5019891;28;20033;-70
2023/07/18 08:42:04;;;;;;;58.42;55.33;;;;;;;;;;5017260;28;20408;-69
2023/07/18 08:44:31;;;;;;;23.00;21.80;;;;;;;;;;5017301;28;20037;-70
2023/07/18 08:47:00;;;;;;;66.25;62.90;;;;;;;;;;5020477;28;20037;-70
2023/07/18 08:49:28;;;;;;;69.90;66.40;;;;;;;;;;5024600;28;20056;-69
2023/07/18 08:51:54;;;;;;;67.30;63.85;;;;;;;;;;5016353;28;20471;-74
2023/07/18 08:54:19;;;;;;;70.35;66.75;;;;;;;;;;5016936;28;20042;-74
2023/07/18 08:56:44;;;;;;;70.40;66.88;;;;;;;;;;5019162;28;20472;-74
2023/07/18 08:59:13;;;;;;;74.63;70.90;;;;;;;;;;5012136;28;20033;-74
2023/07/18 09:01:49;;;;;;;76.43;72.60;;;;;;;;;;5017549;28;20033;-70
2023/07/18 09:04:16;;;;;;;73.15;69.50;;;;;;;;;;5016878;28;20030;-74
2023/07/18 09:06:49;;;;;;;97.47;92.68;;;;;;;;;;5024642;28;20396;-70
2023/07/18 09:09:20;;;;;;;56.30;53.40;;;;;;;;;;5016579;28;20467;-69
2023/07/18 09:11:59;;;;;;;67.47;64.10;;;;;;;;;;5017409;28;20076;-69
2023/07/18 09:14:29;;;;;;;83.95;79.80;;;;;;;;;;5013922;28;20242;-74
2023/07/18 09:16:56;;;;;;;109.03;103.65;;;;;;;;;;5016903;28;20417;-69
2023/07/18 09:19:41;;;;;;;82.00;77.93;;;;;;;;;;5018342;28;20071;-74
2023/07/18 09:22:12;;;;;;;72.28;68.70;;;;;;;;;;5016958;28;20041;-74
2023/07/18 09:24:38;;;;;;;113.32;107.72;;;;;;;;;;5013620;28;20038;-73
2023/07/18 09:27:05;;;;;;;43.25;41.05;;;;;;;;;;5015077;28;20111;-73
2023/07/18 09:29:31;;;;;;;110.45;105.00;;;;;;;;;;5014870;28;20060;-74
2023/07/18 09:31:56;;;;;;;35.40;33.60;;;;;;;;;;5016638;28;20041;-73
2023/07/18 09:34:25;;;;;;;27.00;25.58;;;;;;;;;;5017782;28;20034;-69
2023/07/18 09:36:58;;;;;;;60.63;57.58;;;;;;;;;;5017195;28;20044;-68
2023/07/18 09:39:24;;;;;;;53.72;51.03;;;;;;;;;;5017579;28;20045;-69
2023/07/18 09:41:51;;;;;;;34.47;32.67;;;;;;;;;;5016733;28;20087;-70
2023/07/18 09:44:18;;;;;;;31.90;30.25;;;;;;;;;;5015671;28;20040;-70
2023/07/18 09:46:44;;;;;;;44.58;42.33;;;;;;;;;;5014491;28;20495;-70
2023/07/18 09:49:09;;;;;;;30.52;28.92;;;;;;;;;;5015425;28;20034;-70
2023/07/18 09:51:37;;;;;;;31.17;29.58;;;;;;;;;;5015934;28;20025;-73
2023/07/18 09:54:05;;;;;;;21.52;20.13;;;;;;;;;;5017234;28;20033;-73
2023/07/18 09:56:33;;;;;;;38.20;36.20;;;;;;;;;;5016910;28;20087;-73
2023/07/18 09:59:04;;;;;;;25.33;23.92;;;;;;;;;;5014325;28;20041;-74
2023/07/18 10:01:31;;;;;;;40.45;38.35;;;;;;;;;;5017808;28;20038;-73
2023/07/18 10:03:57;;;;;;;30.30;28.30;;;;;;;;;;5014953;28;20518;-74
2023/07/18 10:06:23;;;;;;;31.50;29.83;;;;;;;;;;5016706;28;20044;-73
2023/07/18 10:08:48;;;;;;;32.88;31.17;;;;;;;;;;5016777;28;20061;-70
2023/07/18 10:11:13;;;;;;;33.40;31.63;;;;;;;;;;5017334;28;20039;-70
2023/07/18 10:13:41;;;;;;;30.30;28.70;;;;;;;;;;5023320;28;20120;-71
2023/07/18 10:16:13;;;;;;;28.35;26.85;;;;;;;;;;5021460;28;20052;-68
2023/07/18 10:18:45;;;;;;;28.70;27.08;;;;;;;;;;5012838;28;20037;-69
2023/07/18 10:21:13;;;;;;;28.05;26.05;;;;;;;;;;5014157;28;20491;-71
2023/07/18 10:23:42;;;;;;;25.65;24.25;;;;;;;;;;5018711;28;20033;-71
2023/07/18 10:26:07;;;;;;;27.67;26.20;;;;;;;;;;5014812;28;20117;-70
2023/07/18 10:28:44;;;;;;;32.42;30.73;;;;;;;;;;5015614;28;20463;-70
2023/07/18 10:31:26;;;;;;;28.42;26.92;;;;;;;;;;5012368;28;20332;-72
2023/07/18 10:34:11;;;;;;;22.25;21.08;;;;;;;;;;5013816;28;20494;-69
2023/07/18 10:36:40;;;;;;;40.63;38.53;;;;;;;;;;5014799;28;20033;-69
2023/07/18 10:39:12;;;;;;;31.40;29.77;;;;;;;;;;5016071;28;20037;-69
2023/07/18 10:41:43;;;;;;;22.42;21.23;;;;;;;;;;5016787;28;20039;-68
2023/07/18 10:44:12;;;;;;;35.42;33.47;;;;;;;;;;5013243;28;20100;-71
2023/07/18 10:46:39;;;;;;;38.33;36.30;;;;;;;;;;5015113;28;20116;-69
2023/07/18 10:49:05;;;;;;;24.25;22.85;;;;;;;;;;5015071;28;20053;-67
2023/07/18 10:51:31;;;;;;;21.65;20.35;;;;;;;;;;5016318;28;20456;-70
2023/07/18 10:53:58;;;;;;;26.50;25.10;;;;;;;;;;5015980;28;20530;-71
2023/07/18 10:56:24;;;;;;;30.02;28.42;;;;;;;;;;5011358;28;20033;-71
2023/07/18 10:58:51;;;;;;;34.83;33.03;;;;;;;;;;5016117;28;20466;-71
2023/07/18 11:01:17;;;;;;;44.50;41.97;;;;;;;;;;5020691;28;20061;-69
2023/07/18 11:03:45;;;;;;;30.88;29.25;;;;;;;;;;5017517;28;20427;-69
2023/07/18 11:06:11;;;;;;;40.10;38.05;;;;;;;;;;5020881;28;20033;-70
2023/07/18 11:08:37;;;;;;;19.90;18.80;;;;;;;;;;5016826;28;20072;-70
2023/07/18 11:11:04;;;;;;;27.33;25.83;;;;;;;;;;5018426;28;20410;-72
2023/07/18 11:13:37;;;;;;;32.78;31.08;;;;;;;;;;5013175;28;20050;-72
2023/07/18 11:16:11;;;;;;;28.63;26.77;;;;;;;;;;5009519;28;20460;-71
2023/07/18 11:18:38;;;;;;;50.55;48.03;;;;;;;;;;5018675;28;20106;-71
2023/07/18 11:21:05;;;;;;;51.30;48.72;;;;;;;;;;5018248;28;20105;-71
2023/07/18 11:23:35;;;;;;;35.15;33.35;;;;;;;;;;5017239;28;20053;-71
2023/07/18 11:26:12;;;;;;;41.35;39.25;;;;;;;;;;5015454;28;20041;-72
2023/07/18 11:28:37;;;;;;;47.53;45.13;;;;;;;;;;5017730;28;20030;-72
2023/07/18 11:31:03;;;;;;;55.97;53.17;;;;;;;;;;5014753;28;20081;-71
2023/07/18 11:33:31;;;;;;;61.17;58.08;;;;;;;;;;5018731;28;20029;-71
2023/07/18 11:35:56;;;;;;;59.05;56.08;;;;;;;;;;5015845;28;20038;-71
2023/07/18 11:38:24;;;;;;;55.42;52.63;;;;;;;;;;5014955;28;20022;-72
2023/07/18 11:40:50;;;;;;;56.08;53.28;;;;;;;;;;5020469;28;20030;-72
2023/07/18 11:43:18;;;;;;;55.70;52.83;;;;;;;;;;5014219;28;20033;-69
2023/07/18 11:45:43;;;;;;;47.58;45.17;;;;;;;;;;5032138;28;20119;-68
2023/07/18 11:48:09;;;;;;;56.13;53.33;;;;;;;;;;5021632;28;20107;-69
2023/07/18 11:50:35;;;;;;;50.95;48.38;;;;;;;;;;5015554;28;20034;-69
2023/07/18 11:53:02;;;;;;;46.20;43.78;;;;;;;;;;5016735;28;20036;-70
2023/07/18 11:55:28;;;;;;;48.80;46.22;;;;;;;;;;5012715;28;20116;-69
2023/07/18 11:57:54;;;;;;;51.10;48.53;;;;;;;;;;5016674;28;20523;-69
2023/07/18 12:00:20;;;;;;;57.80;54.85;;;;;;;;;;5015871;28;20388;-69
2023/07/18 12:02:45;;;;;;;55.03;51.97;;;;;;;;;;5017769;28;20068;-68
2023/07/18 12:05:14;;;;;;;64.45;61.20;;;;;;;;;;5015875;28;20144;-68
2023/07/18 12:07:39;;;;;;;50.47;47.95;;;;;;;;;;5014419;28;20529;-69
2023/07/18 12:10:10;;;;;;;47.38;44.97;;;;;;;;;;5017557;28;20073;-69
2023/07/18 12:12:36;;;;;;;47.95;45.55;;;;;;;;;;5010596;28;20036;-69
2023/07/18 12:15:01;;;;;;;45.70;43.40;;;;;;;;;;5016723;28;20112;-69
2023/07/18 12:17:27;;;;;;;46.17;43.83;;;;;;;;;;5012997;28;20429;-69
2023/07/18 12:19:52;;;;;;;51.58;48.90;;;;;;;;;;5021226;28;20083;-69
2023/07/18 12:22:18;;;;;;;49.63;47.03;;;;;;;;;;5006518;28;20153;-69
2023/07/18 12:24:43;;;;;;;52.25;49.60;;;;;;;;;;5015997;28;20108;-69
2023/07/18 12:27:09;;;;;;;60.17;57.13;;;;;;;;;;5017748;28;20062;-69
2023/07/18 12:29:34;;;;;;;56.13;53.30;;;;;;;;;;5019488;28;20271;-69
2023/07/18 12:31:59;;;;;;;57.13;54.28;;;;;;;;;;5015264;28;20033;-69
2023/07/18 12:34:27;;;;;;;64.65;61.35;;;;;;;;;;5016683;28;20029;-68
2023/07/18 12:36:53;;;;;;;57.15;54.30;;;;;;;;;;5011982;28;20485;-69
2023/07/18 12:39:19;;;;;;;60.40;57.40;;;;;;;;;;5015993;28;20112;-70
2023/07/18 12:41:44;;;;;;;70.53;66.93;;;;;;;;;;5013561;28;20037;-68
2023/07/18 12:44:18;;;;;;;68.65;65.25;;;;;;;;;;5013379;28;20035;-69
2023/07/18 12:46:45;;;;;;;45.88;43.58;;;;;;;;;;5016992;28;20033;-68
2023/07/18 12:49:11;;;;;;;48.92;46.45;;;;;;;;;;5011989;28;20518;-72
2023/07/18 12:51:37;;;;;;;56.28;53.42;;;;;;;;;;5016060;28;20120;-73
2023/07/18 12:54:02;;;;;;;68.30;64.90;;;;;;;;;;5014794;28;20559;-69
2023/07/18 12:56:29;;;;;;;67.38;64.03;;;;;;;;;;5011476;28;20053;-72
2023/07/18 12:58:55;;;;;;;64.00;60.80;;;;;;;;;;5015047;28;20035;-72
2023/07/18 13:01:20;;;;;;;54.35;51.60;;;;;;;;;;5013188;28;20030;-70
2023/07/18 13:03:46;;;;;;;31.98;30.17;;;;;;;;;;5014230;28;20589;-70
2023/07/18 13:06:11;;;;;;;27.77;26.30;;;;;;;;;;5014786;28;20093;-70
2023/07/18 13:08:36;;;;;;;30.50;28.90;;;;;;;;;;5011529;28;20337;-70
2023/07/18 13:11:02;;;;;;;32.33;30.63;;;;;;;;;;5017175;28;20033;-70
2023/07/18 13:13:27;;;;;;;53.92;51.20;;;;;;;;;;5011145;28;20033;-71
2023/07/18 13:15:52;;;;;;;39.72;37.72;;;;;;;;;;5015201;28;20034;-70
2023/07/18 13:18:18;;;;;;;33.83;32.10;;;;;;;;;;5015105;28;20188;-70
2023/07/18 13:20:44;;;;;;;35.05;33.25;;;;;;;;;;5017354;28;20235;-71
2023/07/18 13:23:10;;;;;;;34.95;33.15;;;;;;;;;;5016085;28;20790;-71
2023/07/18 13:25:35;;;;;;;41.15;39.05;;;;;;;;;;5017095;28;20136;-71
2023/07/18 13:28:00;;;;;;;51.97;49.35;;;;;;;;;;5013011;28;20049;-71
2023/07/18 13:30:26;;;;;;;38.60;36.63;;;;;;;;;;5013934;28;20178;-73
2023/07/18 13:32:51;;;;;;;49.65;47.15;;;;;;;;;;5012901;28;20109;-69
2023/07/18 13:35:16;;;;;;;49.83;47.33;;;;;;;;;;5017687;28;20037;-67
2023/07/18 13:37:42;;;;;;;59.95;56.90;;;;;;;;;;5015727;28;20087;-73
2023/07/18 13:40:07;;;;;;;63.83;60.60;;;;;;;;;;5015847;28;20843;-72
2023/07/18 13:42:33;;;;;;;79.40;75.28;;;;;;;;;;5024898;28;20545;-71
2023/07/18 13:44:58;;;;;;;73.45;69.80;;;;;;;;;;5017340;28;20489;-72
2023/07/18 13:47:24;;;;;;;72.43;68.80;;;;;;;;;;5013135;28;20041;-71
2023/07/18 13:49:49;;;;;;;65.15;61.90;;;;;;;;;;5015723;28;20037;-69
2023/07/18 13:52:14;;;;;;;60.75;57.70;;;;;;;;;;5010852;28;20529;-71
2023/07/18 13:54:40;;;;;;;64.80;61.55;;;;;;;;;;5018658;28;20053;-71
2023/07/18 13:57:05;;;;;;;64.25;61.05;;;;;;;;;;5016357;28;20044;-72
2023/07/18 13:59:30;;;;;;;63.38;60.22;;;;;;;;;;5019078;28;20041;-71
2023/07/18 14:01:56;;;;;;;40.55;38.45;;;;;;;;;;5014985;28;20030;-71
2023/07/18 14:04:21;;;;;;;62.35;59.17;;;;;;;;;;5016612;28;20472;-71
2023/07/18 14:06:46;;;;;;;71.80;67.80;;;;;;;;;;5017212;28;20430;-72
2023/07/18 14:09:13;;;;;;;71.25;67.65;;;;;;;;;;5016964;28;20467;-73